sensor_id;sensor_type;location;lat;lon;timestamp;temperature;humidity
72288;SHT31;60221;45.696;16.076;2022-09-25T00:01:01;18.05;56.85
72288;SHT31;60221;45.696;16.076;2022-09-25T00:03:29;17.56;56.40
72288;SHT31;60221;45.696;16.076;2022-09-25T00:06:03;17.22;56.91
72288;SHT31;60221;45.696;16.076;2022-09-25T00:08:29;16.95;57.76
72288;SHT31;60221;45.696;16.076;2022-09-25T00:10:56;16.77;58.12
72288;SHT31;60221;45.696;16.076;2022-09-25T00:13:23;16.61;58.51
72288;SHT31;60221;45.696;16.076;2022-09-25T00:15:55;16.49;58.84
72288;SHT31;60221;45.696;16.076;2022-09-25T00:18:24;16.36;59.43
72288;SHT31;60221;45.696;16.076;2022-09-25T00:21:12;16.22;59.68
72288;SHT31;60221;45.696;16.076;2022-09-25T00:23:41;16.12;60.16
72288;SHT31;60221;45.696;16.076;2022-09-25T00:26:10;16.03;60.92
72288;SHT31;60221;45.696;16.076;2022-09-25T00:28:39;15.94;61.72
72288;SHT31;60221;45.696;16.076;2022-09-25T00:31:08;16.20;64.70
72288;SHT31;60221;45.696;16.076;2022-09-25T00:33:36;16.85;65.72
72288;SHT31;60221;45.696;16.076;2022-09-25T00:36:06;17.37;64.38
72288;SHT31;60221;45.696;16.076;2022-09-25T00:38:35;17.70;62.71
72288;SHT31;60221;45.696;16.076;2022-09-25T00:41:04;17.88;61.70
72288;SHT31;60221;45.696;16.076;2022-09-25T00:43:50;18.02;60.47
72288;SHT31;60221;45.696;16.076;2022-09-25T00:49:16;18.09;59.40
72288;SHT31;60221;45.696;16.076;2022-09-25T00:51:52;17.87;57.90
72288;SHT31;60221;45.696;16.076;2022-09-25T00:54:23;17.47;58.04
72288;SHT31;60221;45.696;16.076;2022-09-25T00:56:53;17.16;58.16
72288;SHT31;60221;45.696;16.076;2022-09-25T00:59:29;16.92;58.97
72288;SHT31;60221;45.696;16.076;2022-09-25T01:01:57;16.71;59.43
72288;SHT31;60221;45.696;16.076;2022-09-25T01:04:27;16.54;60.05
72288;SHT31;60221;45.696;16.076;2022-09-25T01:06:58;16.40;60.41
72288;SHT31;60221;45.696;16.076;2022-09-25T01:09:26;16.23;60.95
72288;SHT31;60221;45.696;16.076;2022-09-25T01:11:52;16.13;61.58
72288;SHT31;60221;45.696;16.076;2022-09-25T01:14:20;16.01;62.17
72288;SHT31;60221;45.696;16.076;2022-09-25T01:17:01;16.34;65.36
72288;SHT31;60221;45.696;16.076;2022-09-25T01:23:04;17.23;66.62
72288;SHT31;60221;45.696;16.076;2022-09-25T01:26:03;17.53;64.79
72288;SHT31;60221;45.696;16.076;2022-09-25T01:31:41;17.94;64.72
72288;SHT31;60221;45.696;16.076;2022-09-25T01:34:20;18.38;63.44
72288;SHT31;60221;45.696;16.076;2022-09-25T01:36:56;18.57;61.58
72288;SHT31;60221;45.696;16.076;2022-09-25T01:39:30;18.66;60.68
72288;SHT31;60221;45.696;16.076;2022-09-25T01:42:15;18.64;59.95
72288;SHT31;60221;45.696;16.076;2022-09-25T01:44:52;18.73;59.84
72288;SHT31;60221;45.696;16.076;2022-09-25T01:47:26;18.82;59.63
72288;SHT31;60221;45.696;16.076;2022-09-25T01:50:01;18.83;59.24
72288;SHT31;60221;45.696;16.076;2022-09-25T01:52:39;18.52;58.07
72288;SHT31;60221;45.696;16.076;2022-09-25T01:55:14;18.00;58.50
72288;SHT31;60221;45.696;16.076;2022-09-25T01:58:08;17.60;58.95
72288;SHT31;60221;45.696;16.076;2022-09-25T02:00:32;17.26;59.74
72288;SHT31;60221;45.696;16.076;2022-09-25T02:03:13;17.01;60.41
72288;SHT31;60221;45.696;16.076;2022-09-25T02:05:44;16.77;61.07
72288;SHT31;60221;45.696;16.076;2022-09-25T02:08:19;16.56;61.67
72288;SHT31;60221;45.696;16.076;2022-09-25T02:10:51;16.40;62.20
72288;SHT31;60221;45.696;16.076;2022-09-25T02:13:17;16.71;65.96
72288;SHT31;60221;45.696;16.076;2022-09-25T02:15:58;17.29;65.62
72288;SHT31;60221;45.696;16.076;2022-09-25T02:18:28;17.76;64.70
72288;SHT31;60221;45.696;16.076;2022-09-25T02:21:27;18.09;63.45
72288;SHT31;60221;45.696;16.076;2022-09-25T02:26:44;18.02;61.33
72288;SHT31;60221;45.696;16.076;2022-09-25T02:29:11;17.97;61.01
72288;SHT31;60221;45.696;16.076;2022-09-25T02:31:53;17.97;60.79
72288;SHT31;60221;45.696;16.076;2022-09-25T02:34:15;18.00;60.85
72288;SHT31;60221;45.696;16.076;2022-09-25T02:36:42;18.04;60.60
72288;SHT31;60221;45.696;16.076;2022-09-25T02:39:13;18.02;60.54
72288;SHT31;60221;45.696;16.076;2022-09-25T02:42:23;18.05;60.53
72288;SHT31;60221;45.696;16.076;2022-09-25T02:50:58;18.18;60.78
72288;SHT31;60221;45.696;16.076;2022-09-25T02:53:47;18.19;60.13
72288;SHT31;60221;45.696;16.076;2022-09-25T02:56:20;18.22;59.90
72288;SHT31;60221;45.696;16.076;2022-09-25T02:58:58;18.20;59.65
72288;SHT31;60221;45.696;16.076;2022-09-25T03:01:30;18.20;59.94
72288;SHT31;60221;45.696;16.076;2022-09-25T03:03:59;18.22;60.03
72288;SHT31;60221;45.696;16.076;2022-09-25T03:06:29;18.20;59.80
72288;SHT31;60221;45.696;16.076;2022-09-25T03:08:58;18.22;59.36
72288;SHT31;60221;45.696;16.076;2022-09-25T03:11:26;18.00;58.29
72288;SHT31;60221;45.696;16.076;2022-09-25T03:14:02;17.57;58.81
72288;SHT31;60221;45.696;16.076;2022-09-25T03:19:17;16.88;60.09
72288;SHT31;60221;45.696;16.076;2022-09-25T03:21:48;16.66;60.93
72288;SHT31;60221;45.696;16.076;2022-09-25T03:24:16;16.46;61.70
72288;SHT31;60221;45.696;16.076;2022-09-25T03:26:42;16.27;62.22
72288;SHT31;60221;45.696;16.076;2022-09-25T03:29:12;16.44;64.93
72288;SHT31;60221;45.696;16.076;2022-09-25T03:31:40;17.06;66.66
72288;SHT31;60221;45.696;16.076;2022-09-25T03:34:08;17.42;64.81
72288;SHT31;60221;45.696;16.076;2022-09-25T03:36:35;17.52;63.84
72288;SHT31;60221;45.696;16.076;2022-09-25T03:39:01;17.57;63.70
72288;SHT31;60221;45.696;16.076;2022-09-25T03:41:31;17.69;63.55
72288;SHT31;60221;45.696;16.076;2022-09-25T03:43:58;17.81;63.32
72288;SHT31;60221;45.696;16.076;2022-09-25T03:46:28;17.90;63.13
72288;SHT31;60221;45.696;16.076;2022-09-25T03:48:56;17.95;62.69
72288;SHT31;60221;45.696;16.076;2022-09-25T03:51:26;18.00;62.28
72288;SHT31;60221;45.696;16.076;2022-09-25T03:53:53;18.04;61.93
72288;SHT31;60221;45.696;16.076;2022-09-25T03:56:23;18.01;62.03
72288;SHT31;60221;45.696;16.076;2022-09-25T03:58:51;18.08;62.03
72288;SHT31;60221;45.696;16.076;2022-09-25T04:01:24;18.13;61.92
72288;SHT31;60221;45.696;16.076;2022-09-25T04:03:51;18.38;62.00
72288;SHT31;60221;45.696;16.076;2022-09-25T04:06:21;18.47;61.76
72288;SHT31;60221;45.696;16.076;2022-09-25T04:08:50;18.59;61.30
72288;SHT31;60221;45.696;16.076;2022-09-25T04:11:18;18.66;61.43
72288;SHT31;60221;45.696;16.076;2022-09-25T04:13:45;18.94;61.27
72288;SHT31;60221;45.696;16.076;2022-09-25T04:16:14;19.01;60.07
72288;SHT31;60221;45.696;16.076;2022-09-25T04:18:42;19.07;60.22
72288;SHT31;60221;45.696;16.076;2022-09-25T04:21:11;19.05;59.39
72288;SHT31;60221;45.696;16.076;2022-09-25T04:23:39;18.62;58.76
72288;SHT31;60221;45.696;16.076;2022-09-25T04:26:07;18.12;59.24
72288;SHT31;60221;45.696;16.076;2022-09-25T04:28:34;17.71;59.97
72288;SHT31;60221;45.696;16.076;2022-09-25T04:31:00;17.42;60.88
72288;SHT31;60221;45.696;16.076;2022-09-25T04:33:28;17.14;61.58
72288;SHT31;60221;45.696;16.076;2022-09-25T04:36:17;16.89;62.25
72288;SHT31;60221;45.696;16.076;2022-09-25T04:38:47;17.12;65.47
72288;SHT31;60221;45.696;16.076;2022-09-25T04:41:16;18.20;65.72
72288;SHT31;60221;45.696;16.076;2022-09-25T04:43:44;18.55;62.96
72288;SHT31;60221;45.696;16.076;2022-09-25T04:46:12;19.53;63.01
72288;SHT31;60221;45.696;16.076;2022-09-25T04:48:38;20.29;58.93
72288;SHT31;60221;45.696;16.076;2022-09-25T04:51:05;20.11;55.74
72288;SHT31;60221;45.696;16.076;2022-09-25T04:53:32;19.22;56.59
72288;SHT31;60221;45.696;16.076;2022-09-25T04:56:05;18.56;57.67
72288;SHT31;60221;45.696;16.076;2022-09-25T04:58:33;18.12;59.07
72288;SHT31;60221;45.696;16.076;2022-09-25T05:01:03;17.77;59.86
72288;SHT31;60221;45.696;16.076;2022-09-25T05:03:30;17.46;60.16
72288;SHT31;60221;45.696;16.076;2022-09-25T05:05:56;17.22;61.03
72288;SHT31;60221;45.696;16.076;2022-09-25T05:08:25;16.99;61.62
72288;SHT31;60221;45.696;16.076;2022-09-25T05:10:52;16.79;62.09
72288;SHT31;60221;45.696;16.076;2022-09-25T05:13:18;17.35;67.15
72288;SHT31;60221;45.696;16.076;2022-09-25T05:15:45;18.60;65.08
72288;SHT31;60221;45.696;16.076;2022-09-25T05:18:21;18.95;61.78
72288;SHT31;60221;45.696;16.076;2022-09-25T05:20:45;19.03;60.58
72288;SHT31;60221;45.696;16.076;2022-09-25T05:23:12;19.21;60.30
72288;SHT31;60221;45.696;16.076;2022-09-25T05:25:38;19.26;58.74
72288;SHT31;60221;45.696;16.076;2022-09-25T05:28:04;18.77;57.57
72288;SHT31;60221;45.696;16.076;2022-09-25T05:30:33;18.16;58.10
72288;SHT31;60221;45.696;16.076;2022-09-25T05:33:00;17.74;58.92
72288;SHT31;60221;45.696;16.076;2022-09-25T05:35:29;17.37;59.77
72288;SHT31;60221;45.696;16.076;2022-09-25T05:37:56;17.09;60.39
72288;SHT31;60221;45.696;16.076;2022-09-25T05:40:23;16.87;61.21
72288;SHT31;60221;45.696;16.076;2022-09-25T05:42:50;16.67;61.56
72288;SHT31;60221;45.696;16.076;2022-09-25T05:45:20;16.49;62.08
72288;SHT31;60221;45.696;16.076;2022-09-25T05:47:47;17.33;67.25
72288;SHT31;60221;45.696;16.076;2022-09-25T05:50:16;18.01;63.96
72288;SHT31;60221;45.696;16.076;2022-09-25T05:52:42;18.29;63.50
72288;SHT31;60221;45.696;16.076;2022-09-25T05:55:09;18.67;62.46
72288;SHT31;60221;45.696;16.076;2022-09-25T05:57:37;18.88;61.72
72288;SHT31;60221;45.696;16.076;2022-09-25T06:00:07;18.98;60.74
72288;SHT31;60221;45.696;16.076;2022-09-25T06:02:40;19.00;59.52
72288;SHT31;60221;45.696;16.076;2022-09-25T06:05:07;18.70;58.31
72288;SHT31;60221;45.696;16.076;2022-09-25T06:07:35;18.18;58.81
72288;SHT31;60221;45.696;16.076;2022-09-25T06:10:02;17.77;59.40
72288;SHT31;60221;45.696;16.076;2022-09-25T06:12:29;17.47;59.87
72288;SHT31;60221;45.696;16.076;2022-09-25T06:14:56;17.19;60.61
72288;SHT31;60221;45.696;16.076;2022-09-25T06:17:23;16.96;61.05
72288;SHT31;60221;45.696;16.076;2022-09-25T06:19:49;16.74;62.17
72288;SHT31;60221;45.696;16.076;2022-09-25T06:22:15;17.57;67.82
72288;SHT31;60221;45.696;16.076;2022-09-25T06:24:41;18.20;63.94
72288;SHT31;60221;45.696;16.076;2022-09-25T06:27:08;18.82;62.87
72288;SHT31;60221;45.696;16.076;2022-09-25T06:29:35;19.22;61.28
72288;SHT31;60221;45.696;16.076;2022-09-25T06:32:02;19.50;60.08
72288;SHT31;60221;45.696;16.076;2022-09-25T06:34:29;19.87;59.81
72288;SHT31;60221;45.696;16.076;2022-09-25T06:37:03;19.80;56.57
72288;SHT31;60221;45.696;16.076;2022-09-25T06:39:38;19.05;56.50
72288;SHT31;60221;45.696;16.076;2022-09-25T06:42:11;18.50;57.35
72288;SHT31;60221;45.696;16.076;2022-09-25T06:44:47;18.11;57.94
72288;SHT31;60221;45.696;16.076;2022-09-25T06:47:13;17.81;58.55
72288;SHT31;60221;45.696;16.076;2022-09-25T06:49:50;17.59;59.25
72288;SHT31;60221;45.696;16.076;2022-09-25T06:52:14;17.37;59.43
72288;SHT31;60221;45.696;16.076;2022-09-25T06:54:40;17.22;59.88
72288;SHT31;60221;45.696;16.076;2022-09-25T06:57:12;17.14;61.44
72288;SHT31;60221;45.696;16.076;2022-09-25T06:59:59;17.01;62.30
72288;SHT31;60221;45.696;16.076;2022-09-25T07:02:28;17.94;66.64
72288;SHT31;60221;45.696;16.076;2022-09-25T07:05:13;19.56;62.26
72288;SHT31;60221;45.696;16.076;2022-09-25T07:07:41;20.42;58.74
72288;SHT31;60221;45.696;16.076;2022-09-25T07:10:08;20.35;55.68
72288;SHT31;60221;45.696;16.076;2022-09-25T07:12:34;19.59;54.68
72288;SHT31;60221;45.696;16.076;2022-09-25T07:15:00;18.95;55.48
72288;SHT31;60221;45.696;16.076;2022-09-25T07:17:26;18.50;57.61
72288;SHT31;60221;45.696;16.076;2022-09-25T07:19:52;18.16;57.61
72288;SHT31;60221;45.696;16.076;2022-09-25T07:22:18;17.90;58.91
72288;SHT31;60221;45.696;16.076;2022-09-25T07:24:44;17.64;59.38
72288;SHT31;60221;45.696;16.076;2022-09-25T07:27:10;17.46;60.06
72288;SHT31;60221;45.696;16.076;2022-09-25T07:29:37;17.29;60.94
72288;SHT31;60221;45.696;16.076;2022-09-25T07:32:06;17.12;61.53
72288;SHT31;60221;45.696;16.076;2022-09-25T07:34:36;16.99;62.24
72288;SHT31;60221;45.696;16.076;2022-09-25T07:37:03;17.92;67.50
72288;SHT31;60221;45.696;16.076;2022-09-25T07:39:29;19.25;63.65
72288;SHT31;60221;45.696;16.076;2022-09-25T07:41:55;19.96;60.19
72288;SHT31;60221;45.696;16.076;2022-09-25T07:44:21;20.38;58.68
72288;SHT31;60221;45.696;16.076;2022-09-25T07:46:53;20.27;55.73
72288;SHT31;60221;45.696;16.076;2022-09-25T07:49:22;19.59;55.33
72288;SHT31;60221;45.696;16.076;2022-09-25T07:51:49;19.08;55.85
72288;SHT31;60221;45.696;16.076;2022-09-25T07:54:15;18.74;57.31
72288;SHT31;60221;45.696;16.076;2022-09-25T07:56:43;18.45;57.50
72288;SHT31;60221;45.696;16.076;2022-09-25T07:59:10;18.24;58.43
72288;SHT31;60221;45.696;16.076;2022-09-25T08:01:37;18.08;59.31
72288;SHT31;60221;45.696;16.076;2022-09-25T08:04:03;17.92;60.31
72288;SHT31;60221;45.696;16.076;2022-09-25T08:06:35;17.77;60.67
72288;SHT31;60221;45.696;16.076;2022-09-25T08:09:03;17.59;61.11
72288;SHT31;60221;45.696;16.076;2022-09-25T08:11:29;17.47;61.89
72288;SHT31;60221;45.696;16.076;2022-09-25T08:13:56;17.39;61.91
72288;SHT31;60221;45.696;16.076;2022-09-25T08:16:22;17.94;65.04
72288;SHT31;60221;45.696;16.076;2022-09-25T08:18:49;19.48;65.45
72288;SHT31;60221;45.696;16.076;2022-09-25T08:21:19;20.46;60.48
72288;SHT31;60221;45.696;16.076;2022-09-25T08:23:52;20.90;57.04
72288;SHT31;60221;45.696;16.076;2022-09-25T08:26:21;20.46;55.19
72288;SHT31;60221;45.696;16.076;2022-09-25T08:28:48;19.86;56.06
72288;SHT31;60221;45.696;16.076;2022-09-25T08:31:15;19.33;57.46
72288;SHT31;60221;45.696;16.076;2022-09-25T08:33:47;18.97;58.05
72288;SHT31;60221;45.696;16.076;2022-09-25T08:36:15;18.71;59.80
72288;SHT31;60221;45.696;16.076;2022-09-25T08:38:42;18.43;59.64
72288;SHT31;60221;45.696;16.076;2022-09-25T08:41:17;18.18;60.43
72288;SHT31;60221;45.696;16.076;2022-09-25T08:44:04;17.98;61.31
72288;SHT31;60221;45.696;16.076;2022-09-25T08:46:23;17.78;61.89
72288;SHT31;60221;45.696;16.076;2022-09-25T08:49:08;18.53;65.50
72288;SHT31;60221;45.696;16.076;2022-09-25T08:51:42;19.03;63.31
72288;SHT31;60221;45.696;16.076;2022-09-25T08:54:22;19.70;61.72
72288;SHT31;60221;45.696;16.076;2022-09-25T08:56:53;19.88;60.60
72288;SHT31;60221;45.696;16.076;2022-09-25T08:59:35;20.08;59.95
72288;SHT31;60221;45.696;16.076;2022-09-25T09:02:12;20.10;59.71
72288;SHT31;60221;45.696;16.076;2022-09-25T09:04:53;20.14;59.59
72288;SHT31;60221;45.696;16.076;2022-09-25T09:07:36;20.45;59.49
72288;SHT31;60221;45.696;16.076;2022-09-25T09:10:44;20.38;57.29
72288;SHT31;60221;45.696;16.076;2022-09-25T09:13:31;19.88;57.61
72288;SHT31;60221;45.696;16.076;2022-09-25T09:16:08;19.58;57.88
72288;SHT31;60221;45.696;16.076;2022-09-25T09:18:38;19.35;58.32
72288;SHT31;60221;45.696;16.076;2022-09-25T09:27:12;18.93;59.95
72288;SHT31;60221;45.696;16.076;2022-09-25T09:32:49;18.77;61.23
72288;SHT31;60221;45.696;16.076;2022-09-25T09:38:37;18.70;61.38
72288;SHT31;60221;45.696;16.076;2022-09-25T09:41:09;18.67;62.27
72288;SHT31;60221;45.696;16.076;2022-09-25T09:44:14;18.66;61.44
72288;SHT31;60221;45.696;16.076;2022-09-25T09:52:24;19.53;62.40
72288;SHT31;60221;45.696;16.076;2022-09-25T09:57:46;20.29;60.58
72288;SHT31;60221;45.696;16.076;2022-09-25T10:00:16;20.62;60.24
72288;SHT31;60221;45.696;16.076;2022-09-25T10:03:11;21.17;59.49
72288;SHT31;60221;45.696;16.076;2022-09-25T10:08:10;20.84;57.11
72288;SHT31;60221;45.696;16.076;2022-09-25T10:10:41;20.59;57.18
72288;SHT31;60221;45.696;16.076;2022-09-25T10:13:18;20.48;57.92
72288;SHT31;60221;45.696;16.076;2022-09-25T10:16:37;20.46;58.37
72288;SHT31;60221;45.696;16.076;2022-09-25T10:18:23;20.51;58.90
72288;SHT31;60221;45.696;16.076;2022-09-25T10:20:56;20.56;59.60
72288;SHT31;60221;45.696;16.076;2022-09-25T10:23:38;20.56;58.69
72288;SHT31;60221;45.696;16.076;2022-09-25T10:26:30;20.55;59.02
72288;SHT31;60221;45.696;16.076;2022-09-25T10:29:00;20.59;59.57
72288;SHT31;60221;45.696;16.076;2022-09-25T10:31:41;20.65;60.18
72288;SHT31;60221;45.696;16.076;2022-09-25T10:36:46;20.83;60.38
72288;SHT31;60221;45.696;16.076;2022-09-25T10:39:35;20.87;59.28
72288;SHT31;60221;45.696;16.076;2022-09-25T10:42:28;20.93;58.81
72288;SHT31;60221;45.696;16.076;2022-09-25T10:44:37;21.03;59.41
72288;SHT31;60221;45.696;16.076;2022-09-25T10:50:19;21.03;58.86
72288;SHT31;60221;45.696;16.076;2022-09-25T10:52:54;20.99;59.39
72288;SHT31;60221;45.696;16.076;2022-09-25T10:55:29;20.99;59.27
72288;SHT31;60221;45.696;16.076;2022-09-25T10:58:20;20.99;59.66
72288;SHT31;60221;45.696;16.076;2022-09-25T11:00:54;21.00;59.59
72288;SHT31;60221;45.696;16.076;2022-09-25T11:03:29;21.01;59.68
72288;SHT31;60221;45.696;16.076;2022-09-25T11:06:02;21.14;59.99
72288;SHT31;60221;45.696;16.076;2022-09-25T11:08:28;21.20;60.03
72288;SHT31;60221;45.696;16.076;2022-09-25T11:10:58;21.20;59.31
72288;SHT31;60221;45.696;16.076;2022-09-25T11:13:51;21.18;59.26
72288;SHT31;60221;45.696;16.076;2022-09-25T11:16:16;21.17;59.00
72288;SHT31;60221;45.696;16.076;2022-09-25T11:18:45;21.14;59.90
72288;SHT31;60221;45.696;16.076;2022-09-25T11:21:21;21.13;59.02
72288;SHT31;60221;45.696;16.076;2022-09-25T11:24:05;21.18;59.42
72288;SHT31;60221;45.696;16.076;2022-09-25T11:26:39;21.15;59.25
72288;SHT31;60221;45.696;16.076;2022-09-25T11:29:14;21.18;59.22
72288;SHT31;60221;45.696;16.076;2022-09-25T11:31:51;21.21;59.09
72288;SHT31;60221;45.696;16.076;2022-09-25T11:34:49;21.33;59.56
72288;SHT31;60221;45.696;16.076;2022-09-25T11:37:30;21.38;57.54
72288;SHT31;60221;45.696;16.076;2022-09-25T11:40:04;21.37;58.25
72288;SHT31;60221;45.696;16.076;2022-09-25T11:45:36;21.34;58.23
72288;SHT31;60221;45.696;16.076;2022-09-25T11:51:21;21.34;58.55
72288;SHT31;60221;45.696;16.076;2022-09-25T11:56:50;21.55;58.02
72288;SHT31;60221;45.696;16.076;2022-09-25T12:02:19;21.99;57.43
72288;SHT31;60221;45.696;16.076;2022-09-25T12:05:17;22.07;56.44
72288;SHT31;60221;45.696;16.076;2022-09-25T12:13:44;22.17;56.79
72288;SHT31;60221;45.696;16.076;2022-09-25T12:21:47;22.04;56.43
72288;SHT31;60221;45.696;16.076;2022-09-25T12:24:45;22.02;56.64
72288;SHT31;60221;45.696;16.076;2022-09-25T12:27:38;21.91;56.59
72288;SHT31;60221;45.696;16.076;2022-09-25T12:30:18;21.85;57.29
72288;SHT31;60221;45.696;16.076;2022-09-25T12:36:45;21.71;57.67
72288;SHT31;60221;45.696;16.076;2022-09-25T12:38:51;21.59;57.99
72288;SHT31;60221;45.696;16.076;2022-09-25T12:41:49;21.51;58.07
72288;SHT31;60221;45.696;16.076;2022-09-25T12:44:55;21.41;58.09
72288;SHT31;60221;45.696;16.076;2022-09-25T12:47:44;21.30;58.36
72288;SHT31;60221;45.696;16.076;2022-09-25T12:50:18;21.15;58.87
72288;SHT31;60221;45.696;16.076;2022-09-25T12:52:57;21.03;59.00
72288;SHT31;60221;45.696;16.076;2022-09-25T12:55:44;20.99;59.02
72288;SHT31;60221;45.696;16.076;2022-09-25T13:01:28;21.04;59.24
72288;SHT31;60221;45.696;16.076;2022-09-25T13:07:33;21.34;58.93
72288;SHT31;60221;45.696;16.076;2022-09-25T13:09:55;21.38;59.11
72288;SHT31;60221;45.696;16.076;2022-09-25T13:12:36;21.38;58.80
72288;SHT31;60221;45.696;16.076;2022-09-25T13:15:21;21.41;58.85
72288;SHT31;60221;45.696;16.076;2022-09-25T13:17:49;21.44;58.65
72288;SHT31;60221;45.696;16.076;2022-09-25T13:23:23;21.61;58.91
72288;SHT31;60221;45.696;16.076;2022-09-25T13:25:49;21.66;58.77
72288;SHT31;60221;45.696;16.076;2022-09-25T13:28:24;21.71;58.53
72288;SHT31;60221;45.696;16.076;2022-09-25T13:38:54;22.06;58.54
72288;SHT31;60221;45.696;16.076;2022-09-25T13:42:01;22.12;58.70
72288;SHT31;60221;45.696;16.076;2022-09-25T13:44:50;22.19;58.60
72288;SHT31;60221;45.696;16.076;2022-09-25T13:50:27;22.23;58.14
72288;SHT31;60221;45.696;16.076;2022-09-25T13:53:01;22.24;58.48
72288;SHT31;60221;45.696;16.076;2022-09-25T13:58:30;22.13;58.30
72288;SHT31;60221;45.696;16.076;2022-09-25T14:01:01;22.09;58.21
72288;SHT31;60221;45.696;16.076;2022-09-25T14:03:38;22.07;58.55
72288;SHT31;60221;45.696;16.076;2022-09-25T14:06:23;22.06;58.55
72288;SHT31;60221;45.696;16.076;2022-09-25T14:08:54;22.07;58.55
72288;SHT31;60221;45.696;16.076;2022-09-25T14:11:29;22.09;58.28
72288;SHT31;60221;45.696;16.076;2022-09-25T14:13:59;22.13;58.53
72288;SHT31;60221;45.696;16.076;2022-09-25T14:16:39;22.12;58.67
72288;SHT31;60221;45.696;16.076;2022-09-25T14:19:05;22.12;58.88
72288;SHT31;60221;45.696;16.076;2022-09-25T14:21:34;22.07;59.19
72288;SHT31;60221;45.696;16.076;2022-09-25T14:24:21;22.02;59.49
72288;SHT31;60221;45.696;16.076;2022-09-25T14:26:51;21.97;59.44
72288;SHT31;60221;45.696;16.076;2022-09-25T14:29:26;21.96;59.65
72288;SHT31;60221;45.696;16.076;2022-09-25T14:37:47;21.96;59.83
72288;SHT31;60221;45.696;16.076;2022-09-25T14:40:39;21.97;59.84
72288;SHT31;60221;45.696;16.076;2022-09-25T14:46:16;21.89;59.78
72288;SHT31;60221;45.696;16.076;2022-09-25T14:48:50;21.78;59.83
72288;SHT31;60221;45.696;16.076;2022-09-25T14:51:42;21.66;59.85
72288;SHT31;60221;45.696;16.076;2022-09-25T14:54:14;21.54;60.23
72288;SHT31;60221;45.696;16.076;2022-09-25T14:56:44;21.40;60.67
72288;SHT31;60221;45.696;16.076;2022-09-25T14:59:36;21.24;60.99
72288;SHT31;60221;45.696;16.076;2022-09-25T15:02:03;21.10;61.43
72288;SHT31;60221;45.696;16.076;2022-09-25T15:04:32;21.00;61.92
72288;SHT31;60221;45.696;16.076;2022-09-25T15:09:46;21.13;63.64
72288;SHT31;60221;45.696;16.076;2022-09-25T15:12:31;21.35;63.55
72288;SHT31;60221;45.696;16.076;2022-09-25T15:15:13;21.66;63.76
72288;SHT31;60221;45.696;16.076;2022-09-25T15:17:54;21.92;62.94
72288;SHT31;60221;45.696;16.076;2022-09-25T15:20:30;21.92;62.23
72288;SHT31;60221;45.696;16.076;2022-09-25T15:23:12;21.99;62.54
72288;SHT31;60221;45.696;16.076;2022-09-25T15:25:39;22.14;62.06
72288;SHT31;60221;45.696;16.076;2022-09-25T15:28:12;22.14;61.19
72288;SHT31;60221;45.696;16.076;2022-09-25T15:30:40;22.16;61.60
72288;SHT31;60221;45.696;16.076;2022-09-25T15:33:32;22.27;61.02
72288;SHT31;60221;45.696;16.076;2022-09-25T15:36:01;22.27;60.81
72288;SHT31;60221;45.696;16.076;2022-09-25T15:38:32;22.29;60.81
72288;SHT31;60221;45.696;16.076;2022-09-25T15:40:59;22.33;60.90
72288;SHT31;60221;45.696;16.076;2022-09-25T15:43:25;22.41;60.86
72288;SHT31;60221;45.696;16.076;2022-09-25T15:49:00;22.50;59.93
72288;SHT31;60221;45.696;16.076;2022-09-25T15:51:18;22.48;59.70
72288;SHT31;60221;45.696;16.076;2022-09-25T15:54:02;22.43;59.66
72288;SHT31;60221;45.696;16.076;2022-09-25T15:56:52;22.50;59.47
72288;SHT31;60221;45.696;16.076;2022-09-25T15:59:41;22.24;58.65
72288;SHT31;60221;45.696;16.076;2022-09-25T16:02:17;21.85;58.96
72288;SHT31;60221;45.696;16.076;2022-09-25T16:05:07;21.51;59.68
72288;SHT31;60221;45.696;16.076;2022-09-25T16:07:37;21.31;60.32
72288;SHT31;60221;45.696;16.076;2022-09-25T16:12:46;20.96;61.33
72288;SHT31;60221;45.696;16.076;2022-09-25T16:18:02;20.63;62.19
72288;SHT31;60221;45.696;16.076;2022-09-25T16:20:33;20.83;63.47
72288;SHT31;60221;45.696;16.076;2022-09-25T16:23:05;21.15;63.14
72288;SHT31;60221;45.696;16.076;2022-09-25T16:25:41;21.26;62.32
72288;SHT31;60221;45.696;16.076;2022-09-25T16:28:22;21.69;64.30
72288;SHT31;60221;45.696;16.076;2022-09-25T16:31:06;22.25;62.50
72288;SHT31;60221;45.696;16.076;2022-09-25T16:33:42;22.94;62.38
72288;SHT31;60221;45.696;16.076;2022-09-25T16:36:12;23.85;59.50
72288;SHT31;60221;45.696;16.076;2022-09-25T16:41:41;22.86;56.10
72288;SHT31;60221;45.696;16.076;2022-09-25T16:47:11;21.71;58.48
72288;SHT31;60221;45.696;16.076;2022-09-25T16:49:39;21.35;59.45
72288;SHT31;60221;45.696;16.076;2022-09-25T16:52:07;21.03;60.30
72288;SHT31;60221;45.696;16.076;2022-09-25T16:54:37;20.80;60.93
72288;SHT31;60221;45.696;16.076;2022-09-25T16:57:03;20.55;61.63
72288;SHT31;60221;45.696;16.076;2022-09-25T16:59:29;20.35;62.32
72288;SHT31;60221;45.696;16.076;2022-09-25T17:02:00;20.86;66.51
72288;SHT31;60221;45.696;16.076;2022-09-25T17:04:29;21.82;64.66
72288;SHT31;60221;45.696;16.076;2022-09-25T17:06:57;22.30;62.65
72288;SHT31;60221;45.696;16.076;2022-09-25T17:09:28;22.78;61.18
72288;SHT31;60221;45.696;16.076;2022-09-25T17:12:00;23.29;59.81
72288;SHT31;60221;45.696;16.076;2022-09-25T17:14:29;23.20;56.59
72288;SHT31;60221;45.696;16.076;2022-09-25T17:16:56;22.48;56.75
72288;SHT31;60221;45.696;16.076;2022-09-25T17:19:24;21.89;57.91
72288;SHT31;60221;45.696;16.076;2022-09-25T17:21:52;21.47;58.98
72288;SHT31;60221;45.696;16.076;2022-09-25T17:24:21;21.13;59.93
72288;SHT31;60221;45.696;16.076;2022-09-25T17:26:49;20.83;60.70
72288;SHT31;60221;45.696;16.076;2022-09-25T17:29:17;20.59;61.47
72288;SHT31;60221;45.696;16.076;2022-09-25T17:31:44;20.38;62.18
72288;SHT31;60221;45.696;16.076;2022-09-25T17:34:20;20.71;65.93
72288;SHT31;60221;45.696;16.076;2022-09-25T17:36:50;21.62;64.18
72288;SHT31;60221;45.696;16.076;2022-09-25T17:39:16;22.04;63.16
72288;SHT31;60221;45.696;16.076;2022-09-25T17:41:42;22.50;61.20
72288;SHT31;60221;45.696;16.076;2022-09-25T17:44:20;22.71;60.26
72288;SHT31;60221;45.696;16.076;2022-09-25T17:46:51;22.96;59.31
72288;SHT31;60221;45.696;16.076;2022-09-25T17:49:19;22.65;57.64
72288;SHT31;60221;45.696;16.076;2022-09-25T17:51:46;22.04;58.33
72288;SHT31;60221;45.696;16.076;2022-09-25T17:54:12;21.52;59.24
72288;SHT31;60221;45.696;16.076;2022-09-25T17:56:39;21.17;60.03